Granville, Indiana
Current Conditions -  °F | °C
As of 11:53 PM on Sunday 21 Dec 2014 (Local Time) from KMIE Reporting Station
Clear Clear  
Wind Chill: 22°   Ceiling: Unl
Heat Index: 30°   Visibility: 7mi
Dew Point: 25°   Wind: 9mph
Humidity: 82%   Direction: 140°SE
Pressure: 30.1"   Gusts: NA
Location:  40.3453°N, 85.3353°W
Report Text: KMIE 220453Z AUTO 14008KT 7SM CLR M01/M04 A3010 RMK AO2 SLP197 T10111039 400281061
Loading
Personal Weather Stations






























Interactive Weather Map New forecast layout! Learn more

10-Day Weather Forecast

Advertisements
Track Severe Weather on mobile